Login

f.scotto
3 activity; - Last training unit 30/08/2012
30/08/2012 Show to everybody traccia corrente_ 30 ago 2012 10_52 001 53.18 484 02:32:42 20.9 Km\h Epic 29
18/08/2012 Show to everybody day 18-ago-12 09_48_34 19.39 830 05:11:30 3.73 Km\h Epic 29
16/08/2012 Show to everybody traccia corrente_ 16 ago 2012 18_05 15.1 391 01:07:54 13.34 Km\h Epic 29
15/08/2012 Show to everybody day 15-ago-12 10_36_02 10.71 489 02:47:39 3.83 Km\h Epic 29
03/08/2012 Show to everybody day 03-ago-12 18_26_04 30.06 60 01:25:20 21.13 Km\h Epic 29
01/08/2012 Show to everybody day 01-ago-12 08_45_48 8.15 84 00:24:49 19.71 Km\h Epic 29
31/07/2012 Show to everybody day 31-lug-12 08_52_31 22 437 01:32:36 14.26 Km\h Epic 29
29/07/2012 Show to everybody day 29-lug-12 09_44_04 40.47 341 02:34:07 15.76 Km\h Epic 29
26/07/2012 Show to everybody day 26-lug-12 18_06_49 36.01 78 01:34:11 22.94 Km\h Epic 29
24/07/2012 Show to everybody day 24-lug-12 09_23_50 31.39 1042 04:18:01 7.3 Km\h Epic 29
23/07/2012 Show to everybody day 23-lug-12 19_08_59 19.18 39 00:59:02 19.49 Km\h Epic 29
22/07/2012 Show to everybody day 22-lug-12 09_22_10 35.26 1397 03:24:09 10.36 Km\h Epic 29
21/07/2012 Show to everybody day 21-lug-12 09_12_04 11.77 477 01:44:46 6.74 Km\h Epic 29
20/07/2012 Show to everybody day 20-lug-12 20_10_20 17.06 22 00:43:35 23.48 Km\h Epic 29
19/07/2012 Show to everybody day 19-lug-12 18_42_05 33.77 80 02:49:08 11.98 Km\h Epic 29
16/07/2012 Show to everybody day 16-lug-12 09_23_17 21.78 236 01:08:58 18.95 Km\h Epic 29
13/07/2012 Show to everybody day 13-lug-12 10_29_32 49.95 716 02:27:58 20.26 Km\h Epic 29
12/07/2012 Show to everybody day 12-lug-12 09_01_58 10.19 438 01:52:39 5.43 Km\h Epic 29
11/07/2012 Show to everybody day 11-lug-12 17_15_48 14.92 464 01:08:41 13.03 Km\h Epic 29
10/07/2012 Show to everybody day 10-lug-12 18_43_43 14.48 24 00:38:28 22.58 Km\h Epic 29
04/07/2012 Show to everybody day 04-lug-12 18_47_59 6.92 52 00:30:44 13.51 Km\h Epic 29
02/07/2012 Show to everybody day 02-lug-12 17_59_30 6.58 129 00:59:02 6.69 Km\h Epic 29
27/06/2012 Show to everybody day 27-giu-12 20_52_48 12.82 37 01:11:30 10.76 Km\h Epic 29
25/06/2012 Show to everybody day 25-giu-12 10_59_23 13.1 86 00:43:30 18.07 Km\h Epic 29
24/06/2012 Show to everybody day 24-giu-12 18_34_39 26.71 64 01:16:44 20.89 Km\h Epic 29
21/06/2012 Show to everybody day 21-giu-12 18_47_56 33.44 75 02:48:10 11.93 Km\h Epic 29
19/06/2012 Show to everybody day 19-giu-12 20_07_56 48.49 626 02:48:35 17.26 Km\h Epic 29
17/06/2012 Show to everybody day 17-giu-12 08_42_42 75.19 1835 05:22:43 13.98 Km\h Epic 29
16/06/2012 Show to everybody day 16-giu-12 08_56_11 19.73 241 01:06:13 17.88 Km\h Epic 29
15/06/2012 Show to everybody 15-giu-12 15_29_20 30.31 560 01:35:08 19.11 Km\h Epic 29
14/06/2012 Show to everybody day 14-giu-12 16_39_43 15.28 371 01:17:31 11.82 Km\h Epic 29
11/06/2012 Show to everybody Allenamento 11-06-2012 alle 06:48:23 39.96 1411 04:13:43 9.45 Km\h Epic 29
06/06/2012 Show to everybody cogo-sanremo 130.98 1227 04:51:59 26.92 Km\h caad 9
05/06/2012 Show to everybody allenamento mattutino 23.7 433 01:25:24 16.65 Km\h Epic 29
04/06/2012 Show to everybody pracaban 18.95 666 02:03:35 9.2 Km\h Epic 29
03/06/2012 Show to everybody girino 20.35 217 00:59:17 20.59 Km\h Epic 29
01/06/2012 Show to everybody giro delle meraviglie voltri 46.99 1026 03:45:56 12.48 Km\h
28/05/2012 Show to everybody anello osiglia 36.14 1038 02:55:57 12.32 Km\h Epic 29
25/05/2012 Show to everybody cogo-manie 78.1 580 03:08:41 24.84 Km\h Epic 29
Training units 0
Kilometers 0 Km
Vertical gain 0 mt
Hours of riding 00:00:00
Average speed 0 Km/h
average HR 129
Points 31
Live Tracking »

Epic 29 321:01:39 4477.08 Km
Stump 29 0 Km
caad 9 12:04:37 308.98 Km

 
If you stop following this users you will not be able to compare your trainings with his

Now you follow this users and you can compare your trainings


MTB-Forum.it | 2012-2019 Training Camp v.1.6 rev 05